Time;durP1;ratioP1;P1;durP2;ratioP2;P2;SDS_P1;SDS_P2;PMS_P1;PMS_P2;Temp;Humidity;BMP_temperature;BMP_pressure;BME280_temperature;BME280_humidity;BME280_pressure;Samples;Min_cycle;Max_cycle;Signal;HPM_P1;HPM_P2
2023/08/31 09:56:47;;;;;;;1.35;1.00;;;;;;;;;;6289497;22;21147;31
2023/08/31 09:59:14;;;;;;;1.83;1.10;;;;;;;;;;6277197;22;20342;-77
2023/08/31 10:01:41;;;;;;;2.13;1.92;;;;;;;;;;6278577;22;20381;-77
2023/08/31 10:04:08;;;;;;;1.35;1.25;;;;;;;;;;6278502;22;20007;-75
2023/08/31 10:06:39;;;;;;;1.20;1.10;;;;;;;;;;6277100;22;20015;-78
2023/08/31 10:09:04;;;;;;;1.58;1.30;;;;;;;;;;6278888;22;20007;-78
2023/08/31 10:11:31;;;;;;;1.17;1.08;;;;;;;;;;6278466;22;20014;-78
2023/08/31 10:13:57;;;;;;;2.45;1.73;;;;;;;;;;6278489;22;20129;-80
2023/08/31 10:16:27;;;;;;;1.58;1.23;;;;;;;;;;6278579;22;20000;-80
2023/08/31 10:18:54;;;;;;;1.17;1.08;;;;;;;;;;6278500;22;20066;-78
2023/08/31 10:21:20;;;;;;;1.30;1.20;;;;;;;;;;6278304;22;20007;-78
2023/08/31 10:23:47;;;;;;;0.85;0.82;;;;;;;;;;6331076;22;20014;-80
2023/08/31 10:26:23;;;;;;;0.98;0.95;;;;;;;;;;6344388;22;20003;-80
2023/08/31 10:28:49;;;;;;;1.08;0.98;;;;;;;;;;6372234;22;20003;-80
2023/08/31 10:31:18;;;;;;;1.60;1.35;;;;;;;;;;6372139;22;20009;-80
2023/08/31 10:33:46;;;;;;;1.50;1.00;;;;;;;;;;6343786;22;20469;-81
2023/08/31 10:36:17;;;;;;;1.77;1.35;;;;;;;;;;6313017;22;20345;-83
2023/08/31 10:38:47;;;;;;;1.27;1.17;;;;;;;;;;6340616;22;20003;-89
2023/08/31 10:41:13;;;;;;;1.05;1.05;;;;;;;;;;6340655;22;20007;-84
2023/08/31 10:43:52;;;;;;;1.33;1.20;;;;;;;;;;6340438;22;20458;-82
2023/08/31 10:46:44;;;;;;;1.98;1.30;;;;;;;;;;6340996;22;20007;-85
2023/08/31 10:49:09;;;;;;;2.08;1.30;;;;;;;;;;6340643;22;20022;-89
2023/08/31 10:51:36;;;;;;;2.08;1.10;;;;;;;;;;6343572;22;20006;-91
2023/08/31 10:54:13;;;;;;;1.90;0.90;;;;;;;;;;6340792;22;19991;-85
2023/08/31 10:56:57;;;;;;;1.90;1.00;;;;;;;;;;6341522;22;20010;-85
2023/08/31 10:59:24;;;;;;;1.17;1.05;;;;;;;;;;6339132;22;20007;-83
2023/08/31 11:01:54;;;;;;;2.30;1.23;;;;;;;;;;6340250;22;20030;-84
2023/08/31 11:04:30;;;;;;;1.42;1.33;;;;;;;;;;6339895;22;20034;-81
2023/08/31 11:07:17;;;;;;;1.70;1.30;;;;;;;;;;6340069;22;20006;-82
2023/08/31 11:09:43;;;;;;;1.60;1.08;;;;;;;;;;6340556;22;20011;-82
2023/08/31 11:12:09;;;;;;;1.20;0.98;;;;;;;;;;6340777;22;20003;-87
2023/08/31 11:14:34;;;;;;;1.45;1.10;;;;;;;;;;6340451;22;20547;-86
2023/08/31 11:17:01;;;;;;;1.40;1.30;;;;;;;;;;6340624;22;20052;-82
2023/08/31 11:19:28;;;;;;;1.48;1.20;;;;;;;;;;6340621;22;20029;-93
2023/08/31 11:21:57;;;;;;;1.38;1.23;;;;;;;;;;6340928;22;20022;-93
2023/08/31 11:24:23;;;;;;;1.48;1.38;;;;;;;;;;6340882;22;20015;-88
2023/08/31 11:26:52;;;;;;;2.35;1.15;;;;;;;;;;6340553;22;20474;-83
2023/08/31 11:29:18;;;;;;;1.30;1.20;;;;;;;;;;6339032;22;20367;-87
2023/08/31 11:31:43;;;;;;;1.63;1.50;;;;;;;;;;6340566;22;20022;-88
2023/08/31 11:34:13;;;;;;;2.05;1.30;;;;;;;;;;6312997;22;20028;-89
2023/08/31 11:36:40;;;;;;;1.20;1.05;;;;;;;;;;6340813;22;20002;-89
2023/08/31 11:39:08;;;;;;;1.70;1.55;;;;;;;;;;6340320;22;20010;-90
2023/08/31 11:41:36;;;;;;;2.30;1.30;;;;;;;;;;6340305;22;20033;-84
2023/08/31 11:44:03;;;;;;;2.30;1.40;;;;;;;;;;6340262;22;20010;-83
2023/08/31 11:46:29;;;;;;;1.20;1.10;;;;;;;;;;6340607;22;20005;-84
2023/08/31 11:48:56;;;;;;;1.48;1.27;;;;;;;;;;6340616;22;20025;-85
2023/08/31 11:51:22;;;;;;;1.00;1.00;;;;;;;;;;6312111;22;20082;-84
2023/08/31 17:41:48;;;;;;;3.50;1.90;;;;;;;;;;6347278;22;20007;-82
2023/08/31 17:44:14;;;;;;;4.25;2.10;;;;;;;;;;6339332;22;20011;-82
2023/08/31 17:46:40;;;;;;;3.60;2.40;;;;;;;;;;6332394;22;20052;-85
2023/08/31 17:49:05;;;;;;;4.20;2.40;;;;;;;;;;6307975;22;20034;-86
2023/08/31 17:51:30;;;;;;;5.32;2.83;;;;;;;;;;6308083;22;20315;-85
2023/08/31 17:53:59;;;;;;;4.47;2.60;;;;;;;;;;6307951;22;20000;-83
2023/08/31 17:56:26;;;;;;;2.97;2.30;;;;;;;;;;6308058;22;20425;-86
2023/08/31 17:58:52;;;;;;;4.90;2.40;;;;;;;;;;6307640;22;20252;-86
2023/08/31 18:01:18;;;;;;;5.03;2.33;;;;;;;;;;6307782;22;20357;-83
2023/08/31 18:03:43;;;;;;;4.32;2.50;;;;;;;;;;6307716;22;20009;-84
2023/08/31 18:06:09;;;;;;;3.75;2.10;;;;;;;;;;6307633;22;20329;-82
2023/08/31 18:08:35;;;;;;;5.03;2.33;;;;;;;;;;6308051;22;20007;-88
2023/08/31 18:11:01;;;;;;;3.30;2.13;;;;;;;;;;6309701;22;20033;-83
2023/08/31 18:13:26;;;;;;;2.47;2.13;;;;;;;;;;6309682;22;20372;-85
2023/08/31 18:15:52;;;;;;;3.72;2.38;;;;;;;;;;6309839;22;20003;-85
2023/08/31 18:18:18;;;;;;;3.55;2.40;;;;;;;;;;6309742;22;20027;-84
2023/08/31 18:20:44;;;;;;;3.45;2.38;;;;;;;;;;6309478;22;20007;-84
2023/08/31 18:23:09;;;;;;;3.45;2.30;;;;;;;;;;6309457;22;20026;-84
2023/08/31 18:25:35;;;;;;;3.10;1.80;;;;;;;;;;6307784;22;20027;-85
2023/08/31 18:28:01;;;;;;;6.55;2.53;;;;;;;;;;6309795;22;20014;-84
2023/08/31 18:30:27;;;;;;;3.97;2.70;;;;;;;;;;6309581;22;20365;-85
2023/08/31 18:32:53;;;;;;;4.63;2.20;;;;;;;;;;6308225;22;20053;-82
2023/08/31 18:35:19;;;;;;;3.15;2.65;;;;;;;;;;6309587;22;20003;-84
2023/08/31 18:37:44;;;;;;;6.13;2.72;;;;;;;;;;6309343;22;20109;-79
2023/08/31 18:40:11;;;;;;;4.47;2.53;;;;;;;;;;6309412;22;20414;-82
2023/08/31 18:42:39;;;;;;;3.55;2.60;;;;;;;;;;6340456;22;19999;-79
2023/08/31 18:45:10;;;;;;;2.88;2.40;;;;;;;;;;6340630;22;19999;-79
2023/08/31 18:47:39;;;;;;;3.60;2.10;;;;;;;;;;6341294;22;20014;-79
2023/08/31 18:50:05;;;;;;;;;;;;;;;;;;6341296;22;20009;-80
2023/08/31 18:52:30;;;;;;;3.90;2.20;;;;;;;;;;6340313;22;20237;-79
2023/08/31 18:54:56;;;;;;;3.40;2.08;;;;;;;;;;6340481;22;20073;-79
2023/08/31 18:57:22;;;;;;;3.45;2.15;;;;;;;;;;6340543;22;20002;-80
2023/08/31 18:59:48;;;;;;;2.25;2.05;;;;;;;;;;6340223;22;20123;-80
2023/08/31 19:02:13;;;;;;;2.58;2.10;;;;;;;;;;6340300;22;20445;-85
2023/08/31 19:04:39;;;;;;;2.22;1.70;;;;;;;;;;6340451;22;20006;-83
2023/08/31 19:07:04;;;;;;;5.13;2.10;;;;;;;;;;6340120;22;20032;-80
2023/08/31 19:09:30;;;;;;;4.03;2.03;;;;;;;;;;6312787;22;20463;-82
2023/08/31 19:11:56;;;;;;;3.10;2.08;;;;;;;;;;6340237;22;20386;-80
2023/08/31 19:14:24;;;;;;;3.35;1.60;;;;;;;;;;6312695;22;20015;-79
2023/08/31 19:16:50;;;;;;;2.80;2.20;;;;;;;;;;6340187;22;20006;-83
2023/08/31 19:19:16;;;;;;;3.88;2.00;;;;;;;;;;6339710;22;20006;-79
2023/08/31 19:21:41;;;;;;;2.75;1.80;;;;;;;;;;6340028;22;20007;-79
2023/08/31 19:24:07;;;;;;;4.88;2.22;;;;;;;;;;6340680;22;20007;-79
2023/08/31 19:26:36;;;;;;;2.20;1.98;;;;;;;;;;6340250;22;20003;-79
2023/08/31 19:29:03;;;;;;;4.30;2.00;;;;;;;;;;6339940;22;20013;-79
2023/08/31 19:31:29;;;;;;;1.73;1.52;;;;;;;;;;6340198;22;20551;-79
2023/08/31 19:33:55;;;;;;;2.45;2.20;;;;;;;;;;6340210;22;20009;-80
2023/08/31 19:36:20;;;;;;;6.10;3.20;;;;;;;;;;6339941;22;20388;-80
2023/08/31 19:38:46;;;;;;;4.50;2.28;;;;;;;;;;6340187;22;20003;-80
2023/08/31 19:41:12;;;;;;;1.90;1.80;;;;;;;;;;6339795;22;20371;-80
2023/08/31 19:43:37;;;;;;;2.97;2.55;;;;;;;;;;6312432;22;20006;-80
2023/08/31 19:46:08;;;;;;;3.25;2.25;;;;;;;;;;6339890;22;20392;-80
2023/08/31 19:48:34;;;;;;;2.72;2.25;;;;;;;;;;6340043;22;20006;-79
2023/08/31 19:51:06;;;;;;;2.88;2.13;;;;;;;;;;6339946;22;20014;-80
2023/08/31 19:53:32;;;;;;;2.00;1.90;;;;;;;;;;6312886;22;20337;-80
2023/08/31 19:56:00;;;;;;;3.05;2.05;;;;;;;;;;6339851;22;20009;-80
2023/08/31 19:58:26;;;;;;;3.30;2.10;;;;;;;;;;6339937;22;19999;-78
2023/08/31 20:00:52;;;;;;;4.75;1.98;;;;;;;;;;6340119;22;20010;-79
2023/08/31 20:03:17;;;;;;;4.18;2.33;;;;;;;;;;6339805;22;19999;-79
2023/08/31 20:05:43;;;;;;;2.97;2.33;;;;;;;;;;6339595;22;19994;-79
2023/08/31 20:08:08;;;;;;;2.45;1.83;;;;;;;;;;6339741;22;20002;-79
2023/08/31 20:10:33;;;;;;;3.13;2.30;;;;;;;;;;6339888;22;20074;-79
2023/08/31 20:12:59;;;;;;;3.35;1.95;;;;;;;;;;6339816;22;20003;-82
2023/08/31 20:15:24;;;;;;;2.78;2.00;;;;;;;;;;6312182;22;20081;-79
2023/08/31 20:17:51;;;;;;;2.60;2.05;;;;;;;;;;6339735;22;20003;-80
2023/08/31 20:20:19;;;;;;;3.00;2.00;;;;;;;;;;6340224;22;20444;-80
2023/08/31 20:22:46;;;;;;;2.50;2.30;;;;;;;;;;6339852;22;20096;-79
2023/08/31 20:25:13;;;;;;;2.22;1.83;;;;;;;;;;6312022;22;20341;-79
2023/08/31 20:27:39;;;;;;;2.10;1.90;;;;;;;;;;6339642;22;20085;-79
2023/08/31 20:30:06;;;;;;;2.20;1.90;;;;;;;;;;6339311;22;20041;-79
2023/08/31 20:32:33;;;;;;;2.20;2.00;;;;;;;;;;6339355;22;20413;-79
2023/08/31 20:34:59;;;;;;;3.30;2.20;;;;;;;;;;6339665;22;20473;-79
2023/08/31 20:37:25;;;;;;;2.38;2.00;;;;;;;;;;6339703;22;20003;-79
2023/08/31 20:39:50;;;;;;;3.08;2.50;;;;;;;;;;6311658;22;20348;-79
2023/08/31 20:42:16;;;;;;;2.35;2.15;;;;;;;;;;6339217;22;20022;-79
2023/08/31 20:44:41;;;;;;;2.70;2.03;;;;;;;;;;6339578;22;20368;-80
2023/08/31 20:47:08;;;;;;;2.80;2.00;;;;;;;;;;6339433;22;20081;-79
2023/08/31 20:49:33;;;;;;;4.43;2.00;;;;;;;;;;6339658;22;20002;-79
2023/08/31 20:51:59;;;;;;;3.90;1.85;;;;;;;;;;6339750;22;20026;-85
2023/08/31 20:54:26;;;;;;;2.72;2.13;;;;;;;;;;6339639;22;20030;-82
2023/08/31 20:56:52;;;;;;;2.67;2.10;;;;;;;;;;6339373;22;20072;-80
2023/08/31 20:59:17;;;;;;;2.00;1.90;;;;;;;;;;6312112;22;20417;-87
2023/08/31 21:01:42;;;;;;;3.67;1.90;;;;;;;;;;6339378;22;20077;-83
2023/08/31 21:04:08;;;;;;;2.40;2.20;;;;;;;;;;6339698;22;19998;-84
2023/08/31 21:06:34;;;;;;;3.28;2.20;;;;;;;;;;6339280;22;20026;-80
2023/08/31 21:08:59;;;;;;;3.13;2.13;;;;;;;;;;6339216;22;20322;-85
2023/08/31 21:11:25;;;;;;;3.92;2.10;;;;;;;;;;6339601;22;20006;-82
2023/08/31 21:13:52;;;;;;;2.13;2.03;;;;;;;;;;6311698;22;20404;-80
2023/08/31 21:16:18;;;;;;;3.13;2.00;;;;;;;;;;6311432;22;20365;-84
2023/08/31 21:18:44;;;;;;;2.67;2.28;;;;;;;;;;6339261;22;20814;-80
2023/08/31 21:21:10;;;;;;;2.65;2.28;;;;;;;;;;6339632;22;19999;-80
2023/08/31 21:23:36;;;;;;;2.67;2.10;;;;;;;;;;6339600;22;20364;-82
2023/08/31 21:26:03;;;;;;;2.60;2.20;;;;;;;;;;6339222;22;20503;-80
2023/08/31 21:28:29;;;;;;;2.72;2.30;;;;;;;;;;6339388;22;20332;-82
2023/08/31 21:30:54;;;;;;;2.40;2.20;;;;;;;;;;6339473;22;20003;-81
2023/08/31 21:33:20;;;;;;;3.15;2.20;;;;;;;;;;6339295;22;20368;-79
2023/08/31 21:35:45;;;;;;;5.35;2.67;;;;;;;;;;6339367;22;20422;-83
2023/08/31 21:38:11;;;;;;;2.42;2.20;;;;;;;;;;6339348;22;20010;-80
2023/08/31 21:40:42;;;;;;;3.35;2.35;;;;;;;;;;6339170;22;20023;-84
2023/08/31 21:43:08;;;;;;;2.67;2.03;;;;;;;;;;6340804;22;20421;-83
2023/08/31 21:45:36;;;;;;;2.00;1.90;;;;;;;;;;6340979;22;19999;-83
2023/08/31 21:48:02;;;;;;;2.22;1.80;;;;;;;;;;6341390;22;20011;-86
2023/08/31 21:50:32;;;;;;;3.25;2.20;;;;;;;;;;6341135;22;20329;-84
2023/08/31 21:53:06;;;;;;;2.40;2.20;;;;;;;;;;6313375;22;20002;-84
2023/08/31 21:55:32;;;;;;;2.50;2.22;;;;;;;;;;6341021;22;20006;-80
2023/08/31 21:58:00;;;;;;;2.45;2.25;;;;;;;;;;6340721;22;20010;-80
2023/08/31 22:00:26;;;;;;;2.53;1.92;;;;;;;;;;6341077;22;20009;-81
2023/08/31 22:02:52;;;;;;;2.65;1.92;;;;;;;;;;6313714;22;20007;-82
2023/08/31 22:05:20;;;;;;;2.15;1.95;;;;;;;;;;6341026;22;20003;-82
2023/08/31 22:07:47;;;;;;;2.50;2.00;;;;;;;;;;6340808;22;19999;-83
2023/08/31 22:10:13;;;;;;;1.80;1.70;;;;;;;;;;6340885;22;20006;-81
2023/08/31 22:12:39;;;;;;;2.08;1.80;;;;;;;;;;6340660;22;20003;-79
2023/08/31 22:15:14;;;;;;;3.47;1.80;;;;;;;;;;6341102;22;20429;-79
2023/08/31 22:17:40;;;;;;;4.72;2.13;;;;;;;;;;6340871;22;20009;-80
2023/08/31 22:20:08;;;;;;;2.80;2.00;;;;;;;;;;6340678;22;20426;-79
2023/08/31 22:22:34;;;;;;;2.30;2.10;;;;;;;;;;6340890;22;20025;-79
2023/08/31 22:25:00;;;;;;;2.72;2.08;;;;;;;;;;6340833;22;20422;-79
2023/08/31 22:27:26;;;;;;;2.28;2.05;;;;;;;;;;6340588;22;20006;-84
